Time;durP1;ratioP1;P1;durP2;ratioP2;P2;SDS_P1;SDS_P2;PMS_P1;PMS_P2;Temp;Humidity;BMP_temperature;BMP_pressure;BME280_temperature;BME280_humidity;BME280_pressure;Samples;Min_cycle;Max_cycle;Signal;HPM_P1;HPM_P2
2021/01/06 00:00:00;;;;;;;17.20;11.52;;;2.80;99.90;;;;;;4993357;28;20171;-78
2021/01/06 00:02:26;;;;;;;22.00;14.33;;;2.80;99.90;;;;;;4974716;28;20309;-78
2021/01/06 00:04:51;;;;;;;17.00;12.27;;;2.80;99.90;;;;;;4993066;28;20182;-78
2021/01/06 00:07:17;;;;;;;18.33;11.77;;;2.80;99.90;;;;;;4992470;28;20214;-78
2021/01/06 00:09:43;;;;;;;16.77;11.17;;;2.80;99.90;;;;;;4992864;28;20541;-79
2021/01/06 00:12:09;;;;;;;16.43;11.97;;;2.80;99.90;;;;;;4991995;28;20748;-78
2021/01/06 00:14:35;;;;;;;20.60;11.35;;;2.80;99.90;;;;;;4992697;28;20290;-79
2021/01/06 00:17:01;;;;;;;14.13;10.73;;;2.80;99.90;;;;;;4992451;28;20211;-79
2021/01/06 00:19:27;;;;;;;18.88;11.80;;;2.80;99.90;;;;;;4992628;28;21059;-79
2021/01/06 00:21:52;;;;;;;15.45;11.90;;;2.80;99.90;;;;;;4992208;28;20226;-79
2021/01/06 00:24:18;;;;;;;22.43;11.70;;;2.80;99.90;;;;;;4992701;28;20198;-79
2021/01/06 00:26:44;;;;;;;17.13;11.97;;;2.80;99.90;;;;;;4992205;28;21381;-79
2021/01/06 00:29:11;;;;;;;17.43;11.80;;;2.80;99.90;;;;;;4992506;28;20426;-77
2021/01/06 00:31:44;;;;;;;18.65;11.88;;;2.80;99.90;;;;;;4991860;28;20454;-79
2021/01/06 00:34:11;;;;;;;16.75;11.32;;;2.70;99.90;;;;;;4975257;28;20199;-80
2021/01/06 00:36:37;;;;;;;16.95;10.88;;;2.80;99.90;;;;;;4991702;28;20245;-79
2021/01/06 00:39:05;;;;;;;16.53;11.23;;;2.80;99.90;;;;;;4992384;28;20198;-79
2021/01/06 00:41:33;;;;;;;17.52;11.52;;;2.70;99.90;;;;;;4991751;28;20233;-78
2021/01/06 00:44:00;;;;;;;16.40;11.60;;;2.70;99.90;;;;;;4991931;28;20290;-78
2021/01/06 00:46:32;;;;;;;16.98;10.80;;;2.80;99.90;;;;;;4991501;28;20217;-79
2021/01/06 00:48:59;;;;;;;15.40;10.80;;;2.80;99.90;;;;;;4974752;28;20175;-78
2021/01/06 00:51:25;;;;;;;18.33;11.15;;;2.80;99.90;;;;;;4990776;28;20210;-78
2021/01/06 00:53:50;;;;;;;17.03;11.73;;;2.80;99.90;;;;;;4992099;28;20201;-78
2021/01/06 00:56:16;;;;;;;16.10;10.67;;;2.80;99.90;;;;;;4990724;28;20285;-78
2021/01/06 00:58:42;;;;;;;14.37;11.97;;;2.80;99.90;;;;;;4991836;28;20163;-78
2021/01/06 01:01:07;;;;;;;18.60;12.00;;;2.80;99.90;;;;;;4991385;28;20221;-78
2021/01/06 01:03:33;;;;;;;19.87;11.30;;;2.80;99.90;;;;;;4991600;28;20194;-78
2021/01/06 01:05:59;;;;;;;16.07;10.70;;;2.70;99.90;;;;;;4991229;28;20301;-78
2021/01/06 01:08:24;;;;;;;22.23;12.90;;;2.80;99.90;;;;;;4991660;28;20261;-78
2021/01/06 01:10:52;;;;;;;14.80;10.10;;;2.80;99.90;;;;;;4991259;28;20533;-78
2021/01/06 01:13:24;;;;;;;17.67;10.80;;;2.80;99.90;;;;;;4991609;28;20286;-79
2021/01/06 01:15:55;;;;;;;15.75;10.63;;;2.80;99.90;;;;;;4991354;28;20322;-79
2021/01/06 01:18:23;;;;;;;15.25;10.90;;;2.80;99.90;;;;;;4974899;28;20637;-80
2021/01/06 01:20:51;;;;;;;16.15;11.30;;;2.80;99.90;;;;;;4992624;28;20249;-80
2021/01/06 01:23:18;;;;;;;15.73;10.82;;;2.80;99.90;;;;;;4992968;28;20190;-80
2021/01/06 01:25:44;;;;;;;11.25;8.85;;;2.80;99.90;;;;;;4992344;28;20517;-79
2021/01/06 01:28:14;;;;;;;16.30;10.20;;;2.80;99.90;;;;;;4991796;28;20175;-78
2021/01/06 01:30:40;;;;;;;14.30;9.95;;;2.80;99.90;;;;;;4991228;28;20461;-78
2021/01/06 01:33:05;;;;;;;15.30;10.13;;;2.80;99.90;;;;;;4991605;28;20601;-78
2021/01/06 01:35:32;;;;;;;16.30;9.67;;;2.80;99.90;;;;;;4973956;28;20174;-78
2021/01/06 01:38:01;;;;;;;17.85;11.40;;;2.80;99.90;;;;;;4991222;28;20249;-78
2021/01/06 01:40:36;;;;;;;14.68;10.55;;;2.80;99.90;;;;;;4991081;28;20210;-79
2021/01/06 01:43:19;;;;;;;17.23;11.35;;;2.80;99.90;;;;;;4991393;28;20216;-80
2021/01/06 01:45:45;;;;;;;20.42;13.02;;;2.80;99.90;;;;;;4990821;28;20186;-79
2021/01/06 01:48:23;;;;;;;19.87;10.40;;;2.90;99.90;;;;;;4992028;28;20166;-79
2021/01/06 01:50:52;;;;;;;17.05;10.55;;;2.90;99.90;;;;;;4988079;28;20541;-80
2021/01/06 01:53:30;;;;;;;15.55;9.90;;;2.80;99.90;;;;;;4995615;28;20249;-79
2021/01/06 01:55:57;;;;;;;13.05;9.57;;;2.80;99.90;;;;;;4994675;28;20174;-79
2021/01/06 01:58:26;;;;;;;13.93;9.60;;;2.90;99.90;;;;;;4995750;28;20167;-79
2021/01/06 02:00:55;;;;;;;16.48;10.23;;;2.90;99.90;;;;;;4995238;28;20241;-79
2021/01/06 02:03:28;;;;;;;19.15;11.75;;;2.90;99.90;;;;;;4977669;28;20553;-79
2021/01/06 02:06:30;;;;;;;19.85;11.95;;;2.90;99.90;;;;;;4994776;28;20166;-79
2021/01/06 02:08:57;;;;;;;17.90;11.10;;;2.90;99.90;;;;;;4981173;28;20174;-79
2021/01/06 02:11:36;;;;;;;19.40;11.30;;;2.90;99.90;;;;;;4994899;28;20620;-79
2021/01/06 02:14:07;;;;;;;14.77;10.02;;;2.90;99.90;;;;;;4995173;28;20234;-78
2021/01/06 02:16:49;;;;;;;18.48;11.65;;;2.90;99.90;;;;;;4994563;28;20693;-78
2021/01/06 02:19:21;;;;;;;17.75;11.77;;;2.90;99.90;;;;;;4995315;28;20225;-77
2021/01/06 02:21:47;;;;;;;20.85;12.30;;;2.90;99.90;;;;;;4994649;28;20297;-78
2021/01/06 02:24:13;;;;;;;21.43;13.77;;;3.00;99.90;;;;;;4995095;28;20206;-78
2021/01/06 02:26:39;;;;;;;17.83;11.38;;;3.00;99.90;;;;;;4994500;28;20505;-78
2021/01/06 02:29:05;;;;;;;19.33;11.35;;;2.90;99.90;;;;;;4995209;28;20170;-78
2021/01/06 02:31:31;;;;;;;19.37;11.67;;;2.90;99.90;;;;;;4977170;28;20257;-78
2021/01/06 02:33:57;;;;;;;24.50;12.40;;;2.90;99.90;;;;;;4995167;28;20445;-78
2021/01/06 02:36:23;;;;;;;20.85;12.25;;;3.00;99.90;;;;;;4994171;28;20216;-78
2021/01/06 02:38:49;;;;;;;18.70;11.88;;;3.00;99.90;;;;;;4994541;28;20202;-78
2021/01/06 02:41:16;;;;;;;17.20;11.18;;;2.90;99.90;;;;;;4994016;28;20224;-79
2021/01/06 02:43:43;;;;;;;20.63;12.73;;;2.90;99.90;;;;;;4968974;28;20202;-79
2021/01/06 02:46:10;;;;;;;18.15;10.50;;;2.90;99.90;;;;;;4993734;28;20657;-79
2021/01/06 02:48:38;;;;;;;16.83;10.68;;;2.90;99.90;;;;;;4994494;28;20183;-78
2021/01/06 02:51:15;;;;;;;18.17;11.82;;;2.90;99.90;;;;;;4994224;28;20202;-78
2021/01/06 02:54:13;;;;;;;22.23;12.13;;;3.00;99.90;;;;;;4994719;28;20201;-78
2021/01/06 02:56:42;;;;;;;19.80;13.02;;;3.00;99.90;;;;;;4991508;28;20214;-79
2021/01/06 02:59:10;;;;;;;18.60;11.65;;;3.00;99.90;;;;;;4994539;28;20552;-79
2021/01/06 03:01:39;;;;;;;16.13;12.00;;;3.00;99.90;;;;;;4993139;28;20610;-79
2021/01/06 03:04:07;;;;;;;15.38;10.23;;;3.00;99.90;;;;;;4993161;28;20199;-79
2021/01/06 03:06:57;;;;;;;18.77;11.63;;;3.00;99.90;;;;;;4993258;28;20222;-79
2021/01/06 03:09:41;;;;;;;16.17;10.02;;;3.00;99.90;;;;;;4994108;28;20269;-77
2021/01/06 03:12:29;;;;;;;22.13;12.30;;;2.90;99.90;;;;;;4993727;28;20673;-78
2021/01/06 03:14:55;;;;;;;14.30;11.05;;;3.00;99.90;;;;;;4994378;28;20565;-78
2021/01/06 03:17:21;;;;;;;22.33;10.43;;;3.00;99.90;;;;;;4993830;28;20280;-77
2021/01/06 03:19:53;;;;;;;16.15;10.45;;;3.00;99.90;;;;;;4994034;28;20574;-78
2021/01/06 03:22:23;;;;;;;15.52;10.80;;;3.00;99.90;;;;;;4993322;28;21033;-78
2021/01/06 03:25:05;;;;;;;18.33;11.25;;;3.00;99.90;;;;;;4994364;28;20641;-78
2021/01/06 03:27:34;;;;;;;13.75;10.20;;;3.00;99.90;;;;;;4993513;28;20696;-78
2021/01/06 03:30:00;;;;;;;18.52;11.18;;;3.00;99.90;;;;;;4994093;28;20182;-78
2021/01/06 03:32:53;;;;;;;22.20;11.25;;;3.00;99.90;;;;;;4993495;28;20226;-79
2021/01/06 03:35:46;;;;;;;13.85;10.70;;;3.10;99.90;;;;;;4993497;28;20529;-79
2021/01/06 03:38:42;;;;;;;16.90;11.00;;;3.10;99.90;;;;;;4981077;28;20234;-79
2021/01/06 03:41:08;;;;;;;16.45;10.43;;;3.10;99.90;;;;;;4993231;28;20215;-79
2021/01/06 03:43:43;;;;;;;15.75;9.60;;;3.00;99.90;;;;;;4976209;28;20610;-80
2021/01/06 03:46:35;;;;;;;18.60;10.20;;;3.00;99.90;;;;;;4994087;28;20688;-80
2021/01/06 03:49:30;;;;;;;14.68;10.35;;;3.10;99.90;;;;;;4995023;28;20233;-80
2021/01/06 03:52:07;;;;;;;17.02;10.52;;;3.10;99.90;;;;;;4993549;28;20270;-79
2021/01/06 03:54:39;;;;;;;17.02;11.30;;;3.10;99.90;;;;;;4977971;28;20190;-81
2021/01/06 03:57:06;;;;;;;16.38;10.25;;;3.00;99.90;;;;;;4994248;28;20677;-79
2021/01/06 03:59:34;;;;;;;14.00;10.35;;;3.00;99.90;;;;;;4993115;28;20175;-79
2021/01/06 04:02:11;;;;;;;14.48;9.60;;;3.00;99.90;;;;;;4992704;28;20573;-79
2021/01/06 04:04:49;;;;;;;17.30;10.18;;;2.90;99.90;;;;;;4975776;28;20166;-80
2021/01/06 04:07:24;;;;;;;16.00;10.15;;;3.00;99.90;;;;;;4981184;28;20218;-79
2021/01/06 04:09:57;;;;;;;14.75;8.98;;;3.00;99.90;;;;;;4975258;28;20181;-79
2021/01/06 04:12:22;;;;;;;12.43;9.27;;;3.00;99.90;;;;;;4992994;28;20206;-80
2021/01/06 04:14:48;;;;;;;13.23;9.70;;;3.10;99.90;;;;;;4976784;28;20194;-80
2021/01/06 04:17:23;;;;;;;15.37;9.60;;;3.00;99.90;;;;;;4993829;28;20606;-80
2021/01/06 04:20:11;;;;;;;11.25;8.15;;;3.00;99.90;;;;;;4995151;28;20481;-79
2021/01/06 04:22:44;;;;;;;11.90;8.02;;;3.00;99.90;;;;;;4969551;28;20215;-80
2021/01/06 04:25:24;;;;;;;11.60;7.75;;;2.90;99.90;;;;;;4993517;28;20649;-80
2021/01/06 04:27:52;;;;;;;15.10;8.80;;;2.90;99.90;;;;;;4975407;28;20226;-81
2021/01/06 04:30:24;;;;;;;11.30;7.68;;;2.90;99.90;;;;;;4994991;28;20175;-81
2021/01/06 04:32:50;;;;;;;9.63;7.07;;;2.80;99.90;;;;;;4993982;28;20218;-80
2021/01/06 04:35:17;;;;;;;12.60;8.65;;;2.80;99.90;;;;;;4992840;28;20171;-79
2021/01/06 04:37:42;;;;;;;12.82;8.93;;;2.80;99.90;;;;;;4992025;28;20250;-80
2021/01/06 04:40:09;;;;;;;14.47;9.47;;;2.80;99.90;;;;;;4994159;28;20174;-80
2021/01/06 04:42:37;;;;;;;10.45;8.15;;;2.80;99.90;;;;;;4975657;28;20297;-79
2021/01/06 04:45:22;;;;;;;13.07;9.68;;;2.90;99.90;;;;;;4993572;28;20187;-81
2021/01/06 04:48:23;;;;;;;13.18;8.32;;;2.80;99.90;;;;;;4994019;28;20242;-81
2021/01/06 04:51:09;;;;;;;9.45;8.38;;;2.80;99.90;;;;;;4993334;28;20165;-80
2021/01/06 04:54:12;;;;;;;12.32;8.15;;;2.80;99.90;;;;;;4992719;28;20185;-78
2021/01/06 04:57:14;;;;;;;10.95;7.63;;;2.80;99.90;;;;;;4991251;28;20593;-78
2021/01/06 05:00:08;;;;;;;14.75;9.00;;;2.90;99.90;;;;;;4991484;28;20187;-78
2021/01/06 05:03:01;;;;;;;11.50;7.07;;;2.90;99.90;;;;;;4991515;28;20250;-78
2021/01/06 05:05:39;;;;;;;12.40;8.98;;;2.90;99.90;;;;;;4991699;28;20178;-78
2021/01/06 05:08:44;;;;;;;11.57;8.05;;;2.90;99.90;;;;;;4992070;28;20202;-78
2021/01/06 05:11:31;;;;;;;17.17;9.43;;;2.90;99.90;;;;;;4961024;28;20218;-80
2021/01/06 05:14:05;;;;;;;13.65;9.75;;;2.90;99.90;;;;;;4976804;28;20634;-80
2021/01/06 05:16:46;;;;;;;11.45;8.38;;;2.90;99.90;;;;;;4991281;28;20222;-79
2021/01/06 05:19:19;;;;;;;11.15;9.07;;;2.90;99.90;;;;;;4974724;28;20671;-79
2021/01/06 05:21:46;;;;;;;10.32;7.38;;;2.90;99.90;;;;;;4958527;28;20218;-79
2021/01/06 05:24:36;;;;;;;13.70;9.75;;;2.90;99.90;;;;;;4991798;28;20349;-78
2021/01/06 05:27:14;;;;;;;15.10;8.80;;;3.00;99.90;;;;;;4977390;28;20210;-78
2021/01/06 05:29:50;;;;;;;11.23;8.10;;;2.90;99.90;;;;;;4991769;28;20202;-79
2021/01/06 05:32:24;;;;;;;11.90;8.45;;;2.90;99.90;;;;;;4990683;28;20206;-79
2021/01/06 05:34:54;;;;;;;10.43;7.45;;;2.90;99.90;;;;;;4969088;28;20175;-80
2021/01/06 05:37:22;;;;;;;13.45;8.43;;;2.90;99.90;;;;;;4992688;28;20680;-79
2021/01/06 05:39:48;;;;;;;14.55;8.75;;;2.90;99.90;;;;;;4991931;28;20692;-79
2021/01/06 05:42:22;;;;;;;12.70;8.30;;;2.90;99.90;;;;;;4991662;28;20218;-79
2021/01/06 05:44:50;;;;;;;19.42;9.98;;;2.90;99.90;;;;;;4992687;28;20449;-78
2021/01/06 05:47:31;;;;;;;12.00;8.20;;;2.90;99.90;;;;;;4991715;28;20280;-79
2021/01/06 05:50:03;;;;;;;12.07;8.25;;;2.90;99.90;;;;;;4983754;28;20170;-80
2021/01/06 05:52:32;;;;;;;14.20;10.05;;;2.90;99.90;;;;;;4992226;28;20210;-79
2021/01/06 05:55:02;;;;;;;13.70;8.88;;;2.90;99.90;;;;;;4973948;28;20175;-78
2021/01/06 05:57:28;;;;;;;13.50;9.95;;;2.90;99.90;;;;;;4991096;28;20598;-78
2021/01/06 06:00:25;;;;;;;12.40;8.63;;;2.90;99.90;;;;;;4991268;28;20167;-78
2021/01/06 06:03:25;;;;;;;16.40;9.45;;;2.90;99.90;;;;;;4990093;28;20222;-80
2021/01/06 06:06:00;;;;;;;14.77;9.30;;;2.90;99.90;;;;;;4990304;28;20198;-78
2021/01/06 06:09:03;;;;;;;16.42;10.00;;;2.90;99.90;;;;;;4961817;28;20174;-78
2021/01/06 06:11:48;;;;;;;15.55;10.65;;;3.00;99.90;;;;;;4990212;28;20214;-78
2021/01/06 06:14:28;;;;;;;14.77;10.45;;;3.00;99.90;;;;;;4977640;28;20245;-78
2021/01/06 06:16:59;;;;;;;15.45;10.40;;;3.00;99.90;;;;;;4974872;28;21416;-79
2021/01/06 06:20:07;;;;;;;18.20;11.40;;;3.10;99.90;;;;;;4991380;28;20630;-79
2021/01/06 06:22:51;;;;;;;17.75;9.95;;;3.00;99.90;;;;;;4980393;28;20257;-81
2021/01/06 06:25:30;;;;;;;16.40;10.48;;;3.00;99.90;;;;;;4991899;28;20669;-81
2021/01/06 06:28:25;;;;;;;15.50;9.60;;;3.00;99.90;;;;;;4992177;28;20218;-80
2021/01/06 06:31:00;;;;;;;15.60;10.82;;;3.00;99.90;;;;;;4992668;28;20155;-79
2021/01/06 06:33:34;;;;;;;13.90;9.88;;;3.00;99.90;;;;;;4975558;28;20657;-80
2021/01/06 06:36:02;;;;;;;12.85;9.25;;;3.10;99.90;;;;;;4973969;28;20210;-80
2021/01/06 06:38:40;;;;;;;11.93;9.13;;;3.10;99.90;;;;;;4995644;28;20178;-82
2021/01/06 06:41:23;;;;;;;10.90;6.53;;;3.00;99.90;;;;;;4996274;28;20345;-81
2021/01/06 06:44:21;;;;;;;9.25;6.82;;;3.00;99.90;;;;;;4978493;28;20205;-79
2021/01/06 06:47:08;;;;;;;8.00;5.25;;;2.90;99.90;;;;;;4995450;28;20214;-81
2021/01/06 06:50:10;;;;;;;7.70;5.57;;;2.90;99.90;;;;;;4994697;28;20564;-79
2021/01/06 06:53:14;;;;;;;8.35;5.35;;;2.80;99.90;;;;;;4994514;28;20312;-79
2021/01/06 06:55:48;;;;;;;5.55;3.70;;;2.80;99.90;;;;;;4995339;28;20185;-79
2021/01/06 06:58:38;;;;;;;6.18;3.63;;;2.80;99.90;;;;;;4994313;28;20174;-79
2021/01/06 07:01:09;;;;;;;6.95;4.40;;;2.90;99.90;;;;;;4976176;28;20226;-81
2021/01/06 07:03:36;;;;;;;5.88;4.75;;;2.90;99.90;;;;;;4958573;28;20294;-79
2021/01/06 07:06:07;;;;;;;5.15;4.45;;;2.80;99.90;;;;;;4999393;28;20214;-79
2021/01/06 07:08:45;;;;;;;7.35;4.60;;;2.80;99.90;;;;;;5015579;28;20155;-81
2021/01/06 07:11:27;;;;;;;6.75;4.35;;;2.80;99.90;;;;;;5015166;28;20746;-81
2021/01/06 07:14:14;;;;;;;6.05;4.25;;;2.90;99.90;;;;;;5015524;28;20287;-82
2021/01/06 07:16:59;;;;;;;7.88;4.78;;;3.00;99.90;;;;;;5002976;28;20214;-79
2021/01/06 07:19:34;;;;;;;6.22;4.93;;;2.90;99.90;;;;;;4977196;28;20174;-79
2021/01/06 07:22:20;;;;;;;9.57;5.43;;;2.90;99.90;;;;;;4993528;28;20245;-79
2021/01/06 07:25:10;;;;;;;5.50;4.35;;;2.80;99.90;;;;;;4983999;28;20261;-78
2021/01/06 07:27:36;;;;;;;6.32;5.25;;;2.80;99.90;;;;;;4969135;28;20207;-80
2021/01/06 07:30:04;;;;;;;5.75;4.30;;;2.80;99.90;;;;;;4994219;28;20174;-78
2021/01/06 07:32:40;;;;;;;7.18;4.20;;;2.70;99.90;;;;;;4993108;28;20214;-80
2021/01/06 07:35:23;;;;;;;8.82;6.00;;;2.70;99.90;;;;;;4976331;28;20171;-78
2021/01/06 07:38:00;;;;;;;6.80;4.72;;;2.70;99.90;;;;;;4992993;28;20207;-80
2021/01/06 07:40:33;;;;;;;4.85;4.32;;;2.70;99.90;;;;;;4993786;28;20691;-80
2021/01/06 07:43:08;;;;;;;6.25;4.70;;;2.70;99.90;;;;;;4960593;28;20210;-79
2021/01/06 07:46:10;;;;;;;6.55;4.88;;;2.80;99.90;;;;;;4975763;28;20173;-78
2021/01/06 07:48:50;;;;;;;5.65;4.80;;;2.80;99.90;;;;;;4992693;28;20202;-78
2021/01/06 07:51:19;;;;;;;7.57;5.35;;;2.80;99.90;;;;;;4975727;28;20264;-78
2021/01/06 07:54:00;;;;;;;7.25;4.93;;;2.80;99.90;;;;;;4976158;28;20201;-78
2021/01/06 07:56:36;;;;;;;9.00;6.10;;;2.80;99.90;;;;;;4993264;28;20238;-77
2021/01/06 07:59:10;;;;;;;6.82;5.10;;;2.80;99.90;;;;;;4994007;28;20209;-78
2021/01/06 08:01:50;;;;;;;7.82;5.57;;;2.80;99.90;;;;;;4993256;28;20246;-78
2021/01/06 08:04:27;;;;;;;6.35;5.00;;;2.80;99.90;;;;;;4994237;28;20616;-79
2021/01/06 08:06:59;;;;;;;10.07;6.32;;;2.80;99.90;;;;;;4992937;28;20206;-79
2021/01/06 08:09:42;;;;;;;9.55;6.10;;;2.90;99.90;;;;;;4993912;28;20171;-78
2021/01/06 08:12:28;;;;;;;9.48;6.72;;;2.90;99.90;;;;;;4992437;28;20253;-78
2021/01/06 08:15:19;;;;;;;11.57;7.35;;;2.80;99.90;;;;;;4993209;28;20182;-78
2021/01/06 08:17:49;;;;;;;10.55;7.18;;;2.90;99.90;;;;;;4982039;28;20609;-79
2021/01/06 08:20:26;;;;;;;10.50;7.03;;;2.90;99.90;;;;;;4963101;28;20174;-79
2021/01/06 08:23:14;;;;;;;12.07;7.47;;;2.90;99.90;;;;;;4992319;28;20213;-78
2021/01/06 08:25:41;;;;;;;11.65;8.30;;;2.90;99.90;;;;;;4983057;28;20495;-78
2021/01/06 08:28:22;;;;;;;15.75;8.55;;;2.90;99.90;;;;;;5029314;23;20310;-78
2021/01/06 08:30:48;;;;;;;13.68;9.20;;;2.90;99.90;;;;;;5031830;28;20212;-79
2021/01/06 08:33:15;;;;;;;14.03;10.77;;;2.80;99.90;;;;;;5032090;28;20280;-78
2021/01/06 08:35:49;;;;;;;11.60;8.90;;;2.90;99.90;;;;;;5032761;28;20169;-78
2021/01/06 08:38:32;;;;;;;11.38;8.80;;;2.90;99.90;;;;;;5032686;28;20596;-79
2021/01/06 08:41:18;;;;;;;14.15;8.93;;;2.90;99.90;;;;;;5031435;28;21973;-79
2021/01/06 08:43:46;;;;;;;13.88;10.68;;;2.90;99.90;;;;;;5032514;28;20189;-78
2021/01/06 08:46:32;;;;;;;10.60;8.20;;;2.90;99.90;;;;;;5014325;28;20208;-78
2021/01/06 08:49:28;;;;;;;14.55;8.00;;;2.90;99.90;;;;;;5009832;28;20573;-78
2021/01/06 08:52:16;;;;;;;13.75;8.55;;;2.90;99.90;;;;;;5031987;28;20232;-78
2021/01/06 08:55:01;;;;;;;11.65;8.90;;;2.90;99.90;;;;;;5002834;28;20285;-79
2021/01/06 08:57:36;;;;;;;13.63;8.80;;;3.00;99.90;;;;;;5032353;28;20226;-79
2021/01/06 09:00:24;;;;;;;13.18;9.30;;;3.00;99.90;;;;;;5025617;28;20180;-77
2021/01/06 09:03:17;;;;;;;14.93;9.60;;;3.00;99.90;;;;;;5030784;28;20217;-79
2021/01/06 09:05:52;;;;;;;13.63;9.85;;;3.10;99.90;;;;;;4994561;28;20199;-78
2021/01/06 09:08:26;;;;;;;11.02;9.40;;;3.10;99.90;;;;;;5032937;28;20180;-77
2021/01/06 09:11:05;;;;;;;15.30;10.80;;;3.20;99.90;;;;;;5032583;28;20177;-78
2021/01/06 09:13:42;;;;;;;26.38;11.80;;;3.20;99.90;;;;;;5031466;28;20691;-78
2021/01/06 09:16:35;;;;;;;12.02;9.93;;;3.30;99.90;;;;;;5032080;28;20252;-78
2021/01/06 09:19:04;;;;;;;11.65;9.18;;;3.30;99.90;;;;;;5003710;28;20571;-78
2021/01/06 09:21:31;;;;;;;18.65;11.85;;;3.30;99.90;;;;;;5031968;28;20217;-78
2021/01/06 09:24:15;;;;;;;14.70;11.20;;;3.30;99.90;;;;;;5032516;28;20181;-77
2021/01/06 09:26:45;;;;;;;14.55;10.82;;;3.30;99.90;;;;;;5003938;28;20213;-78
2021/01/06 09:29:15;;;;;;;15.15;11.23;;;3.30;99.90;;;;;;5014962;28;20644;-77
2021/01/06 09:31:45;;;;;;;19.42;13.18;;;3.30;99.90;;;;;;5031691;28;20213;-78
2021/01/06 09:34:17;;;;;;;24.55;14.10;;;3.40;99.90;;;;;;5014658;28;20192;-78
2021/01/06 09:36:45;;;;;;;15.52;11.05;;;3.50;99.90;;;;;;5013940;28;20220;-78
2021/01/06 09:39:21;;;;;;;17.40;12.10;;;3.50;99.90;;;;;;5032067;28;20177;-78
2021/01/06 09:41:48;;;;;;;17.15;11.57;;;3.50;99.90;;;;;;5030898;28;20626;-78
2021/01/06 09:44:15;;;;;;;17.75;11.90;;;3.50;99.90;;;;;;5032020;28;20250;-77
2021/01/06 09:46:50;;;;;;;18.77;13.10;;;3.50;99.90;;;;;;5031702;28;20216;-79
2021/01/06 09:49:23;;;;;;;16.63;12.45;;;3.50;99.90;;;;;;5015346;28;20420;-78
2021/01/06 09:51:53;;;;;;;16.13;12.27;;;3.50;99.90;;;;;;5031590;28;20584;-78
2021/01/06 09:54:20;;;;;;;14.77;10.68;;;3.50;99.90;;;;;;5014412;28;20192;-79
2021/01/06 09:56:46;;;;;;;15.52;10.90;;;3.50;99.90;;;;;;5031842;28;20239;-78
2021/01/06 09:59:25;;;;;;;20.07;13.33;;;3.40;99.90;;;;;;5031594;28;20641;-78
2021/01/06 10:01:58;;;;;;;17.35;12.05;;;3.40;99.90;;;;;;5030592;28;20503;-78
2021/01/06 10:04:28;;;;;;;19.13;12.43;;;3.40;99.90;;;;;;5029667;28;20529;-78
2021/01/06 10:07:11;;;;;;;18.13;12.90;;;3.40;99.90;;;;;;5011616;28;20606;-78
2021/01/06 10:09:41;;;;;;;16.38;12.38;;;3.40;99.90;;;;;;5030566;28;20169;-79
2021/01/06 10:12:35;;;;;;;15.63;11.45;;;3.40;99.90;;;;;;5025303;28;20239;-79
2021/01/06 10:15:19;;;;;;;17.20;13.00;;;3.40;99.90;;;;;;5035305;28;20620;-78
2021/01/06 10:18:00;;;;;;;19.38;14.40;;;3.40;99.90;;;;;;5016881;28;20212;-80
2021/01/06 10:20:35;;;;;;;21.33;14.05;;;3.40;99.90;;;;;;5017990;28;20521;-77
2021/01/06 10:23:28;;;;;;;19.88;13.55;;;3.40;99.90;;;;;;5015477;28;20216;-78
2021/01/06 10:29:21;;;;;;;18.55;12.73;;;3.30;99.90;;;;;;5006116;28;20181;-78
2021/01/06 10:32:00;;;;;;;21.77;14.32;;;3.40;99.90;;;;;;5015555;28;20213;-78
2021/01/06 10:35:07;;;;;;;19.80;13.82;;;3.40;99.90;;;;;;5001253;28;20205;-78
2021/01/06 10:37:33;;;;;;;16.77;13.32;;;3.40;99.90;;;;;;5003737;28;20212;-78
2021/01/06 10:40:24;;;;;;;18.13;13.63;;;3.40;99.90;;;;;;5006779;28;20174;-77
2021/01/06 10:42:51;;;;;;;20.38;14.38;;;3.30;99.90;;;;;;4994430;28;20229;-78
2021/01/06 10:45:29;;;;;;;17.80;13.55;;;3.30;99.90;;;;;;5015592;28;20508;-77
2021/01/06 10:47:55;;;;;;;19.30;13.23;;;3.30;99.90;;;;;;4986491;28;20240;-77
2021/01/06 10:50:26;;;;;;;17.70;13.10;;;3.30;99.90;;;;;;4979804;28;20579;-78
2021/01/06 10:53:13;;;;;;;18.17;14.00;;;3.30;99.90;;;;;;4994788;28;20217;-77
2021/01/06 10:56:10;;;;;;;19.08;14.35;;;3.30;99.90;;;;;;4981518;28;20171;-78
2021/01/06 10:59:03;;;;;;;20.90;13.77;;;3.30;99.90;;;;;;5002664;28;20225;-77
2021/01/06 11:01:50;;;;;;;21.30;14.07;;;3.30;99.90;;;;;;5013871;28;20217;-77
2021/01/06 11:04:43;;;;;;;20.27;15.13;;;3.30;99.90;;;;;;5001056;28;20190;-77
2021/01/06 11:07:35;;;;;;;23.15;15.13;;;3.30;99.90;;;;;;5009591;28;20209;-78
2021/01/06 11:10:32;;;;;;;22.27;15.82;;;3.30;99.90;;;;;;5007058;28;20239;-77
2021/01/06 11:13:23;;;;;;;19.23;13.88;;;3.30;99.90;;;;;;4997480;28;20637;-77
2021/01/06 11:16:06;;;;;;;24.42;14.90;;;3.30;99.90;;;;;;4996743;28;20178;-77
2021/01/06 11:18:36;;;;;;;20.58;15.85;;;3.30;99.90;;;;;;4998461;28;20234;-78
2021/01/06 11:21:16;;;;;;;21.35;15.68;;;3.30;99.90;;;;;;4998368;28;20648;-78
2021/01/06 11:23:53;;;;;;;21.90;15.50;;;3.30;99.90;;;;;;5004194;28;20194;-79
2021/01/06 11:26:24;;;;;;;27.15;16.90;;;3.30;99.90;;;;;;4993895;28;20269;-77
2021/01/06 11:29:23;;;;;;;24.20;16.85;;;3.40;99.90;;;;;;4986867;28;20177;-77
2021/01/06 11:32:01;;;;;;;21.25;14.70;;;3.30;99.90;;;;;;4976099;28;20229;-77
2021/01/06 11:34:35;;;;;;;24.40;17.02;;;3.30;99.90;;;;;;4984702;28;20192;-78
2021/01/06 11:38:11;;;;;;;25.38;18.00;;;3.40;99.90;;;;;;4985375;28;20205;-78
2021/01/06 11:40:47;;;;;;;24.05;16.27;;;3.30;99.90;;;;;;4953156;28;20371;-78
2021/01/06 11:43:29;;;;;;;23.85;17.50;;;3.30;99.90;;;;;;5012149;28;20553;-78
2021/01/06 11:45:55;;;;;;;26.35;18.40;;;3.30;99.90;;;;;;4996468;28;20755;-78
2021/01/06 11:52:25;;;;;;;25.15;17.48;;;3.40;99.90;;;;;;4909594;29;20751;-79
2021/01/06 11:55:14;;;;;;;23.45;17.05;;;3.40;99.90;;;;;;4932416;29;20169;-78
2021/01/06 11:57:55;;;;;;;26.42;18.08;;;3.30;99.90;;;;;;4985555;28;20197;-78
2021/01/06 12:00:42;;;;;;;23.77;16.40;;;3.30;99.90;;;;;;4995985;28;20221;-78
2021/01/06 12:03:07;;;;;;;21.25;17.13;;;3.30;99.90;;;;;;4992483;28;20550;-78
2021/01/06 12:05:39;;;;;;;23.93;18.10;;;3.30;99.90;;;;;;5009654;28;20177;-77
2021/01/06 12:08:29;;;;;;;25.80;17.65;;;3.40;99.90;;;;;;5013338;28;20209;-78
2021/01/06 12:10:55;;;;;;;24.50;16.52;;;3.40;99.90;;;;;;5010241;28;20166;-78
2021/01/06 12:13:39;;;;;;;24.10;18.20;;;3.40;99.90;;;;;;4977344;28;20187;-78
2021/01/06 12:16:17;;;;;;;25.33;18.58;;;3.40;99.90;;;;;;4998185;28;20301;-78
2021/01/06 12:19:06;;;;;;;23.35;17.08;;;3.40;99.90;;;;;;5012964;28;20201;-78
2021/01/06 12:21:35;;;;;;;25.98;17.60;;;3.40;99.90;;;;;;4999428;28;20576;-77
2021/01/06 12:24:43;;;;;;;24.17;18.23;;;3.40;99.90;;;;;;4994371;28;20186;-78
2021/01/06 12:27:08;;;;;;;25.50;17.50;;;3.40;99.90;;;;;;4989031;28;20707;-78
2021/01/06 12:29:48;;;;;;;23.17;18.17;;;3.40;99.90;;;;;;5013904;28;20201;-77
2021/01/06 12:32:49;;;;;;;27.73;18.60;;;3.40;99.90;;;;;;5000008;28;20297;-78
2021/01/06 12:35:35;;;;;;;30.42;17.30;;;3.40;99.90;;;;;;4993574;28;20174;-78
2021/01/06 12:38:19;;;;;;;23.17;16.88;;;3.40;99.90;;;;;;4987758;28;20221;-78
2021/01/06 12:40:59;;;;;;;25.90;16.70;;;3.40;99.90;;;;;;4997202;28;20181;-78
2021/01/06 12:43:29;;;;;;;25.20;15.23;;;3.40;99.90;;;;;;4982298;28;20189;-77
2021/01/06 12:46:11;;;;;;;27.77;17.55;;;3.40;99.90;;;;;;4996400;28;20179;-78
2021/01/06 12:49:02;;;;;;;24.77;18.35;;;3.40;99.90;;;;;;5017498;28;20201;-77
2021/01/06 12:51:33;;;;;;;24.30;18.48;;;3.40;99.90;;;;;;4981576;28;20265;-77
2021/01/06 12:54:03;;;;;;;26.73;19.45;;;3.40;99.90;;;;;;4975063;28;20186;-78
2021/01/06 12:56:44;;;;;;;23.88;17.58;;;3.40;99.90;;;;;;4994951;28;20202;-77
2021/01/06 12:59:26;;;;;;;28.27;18.48;;;3.40;99.90;;;;;;4994372;28;20174;-77
2021/01/06 13:01:58;;;;;;;26.30;18.63;;;3.40;99.90;;;;;;5009421;28;20221;-78
2021/01/06 13:04:31;;;;;;;28.35;20.58;;;3.40;99.90;;;;;;4992825;28;20245;-78
2021/01/06 13:07:34;;;;;;;30.20;19.58;;;3.40;99.90;;;;;;5010706;28;20209;-77
2021/01/06 13:10:38;;;;;;;33.17;20.65;;;3.40;99.90;;;;;;5006038;28;20232;-79
2021/01/06 13:13:37;;;;;;;32.38;22.15;;;3.40;99.90;;;;;;4979114;28;20212;-78
2021/01/06 13:16:22;;;;;;;28.67;20.15;;;3.40;99.90;;;;;;4987382;28;20697;-78
2021/01/06 13:19:19;;;;;;;25.70;18.00;;;3.30;99.90;;;;;;4994434;28;20182;-78
2021/01/06 13:22:05;;;;;;;32.50;21.10;;;3.30;99.90;;;;;;4992946;28;20221;-78
2021/01/06 13:24:34;;;;;;;28.73;21.02;;;3.30;99.90;;;;;;5011253;28;20221;-80
2021/01/06 13:27:07;;;;;;;27.00;18.27;;;3.30;99.90;;;;;;4992840;28;20206;-78
2021/01/06 13:30:13;;;;;;;27.83;20.48;;;3.30;99.90;;;;;;5010020;28;20605;-77
2021/01/06 13:32:55;;;;;;;39.60;22.70;;;3.30;99.90;;;;;;4970545;28;20221;-78
2021/01/06 13:35:32;;;;;;;30.77;20.25;;;3.40;99.90;;;;;;5006345;28;20202;-77
2021/01/06 13:38:09;;;;;;;29.52;20.75;;;3.40;99.90;;;;;;5011448;28;20300;-78